Briefing drone pour La machine

Rechercher une autre localisation

Conditions de vol :


Nous sommes le : Lundi 28 novembre 2022
Il est 17:45 UTC (18:45 LT)

Lever de soleil : 06:40 UTC (07:40 LT)
Coucher de soleil : 16:27 UTC (17:27 LT)

Météo

L'essentiel des conditions de vol

VIGILANCE MÉTÉO FRANCE - Nièvre (58)
Pas de vigilances particulieres
METAR de LFQG
LFQG 281730Z AUTO 20005KT 9999 FEW031/// SCT054/// ///TCU 07/06 Q1014

Date d'émission: 28/11/2022
Heure d'émission: 17:30 UTC
Vent: 200° pour 5 KT (9 km/h)
Visibilité horizontale: > 10 km
Plafond :
- Peu de nuages à 3100ft (945m)
- Nuages épars à 5400ft (1646m)
Température: 7 °C
Point de rosée: 6 °C
Humidité: 93%
Pression (QNH): 1014 hPa
Prévision 24h pour Nevers (16 km)
Vent : 287° pour 2 KT (7 km/h)
Temperature Maxi: 6 °C
Temperature Min: 6 °C
Humidité : 92%
Condition : Couvert



Warning: count(): Parameter must be an array or an object that implements Countable in /homepages/6/d509196549/htdocs/droneoxygene/briefing.php on line 743
WEBCAM POUR LA MACHINE

Réglementation

Voler en sécurité

CARTES AERONAUTIQUE 1/500.000
CARTE AZBA (Reseau basse altitude)
CARTES VAC (LFQG)
SUP AIP




Chargement des AIP...
NOTAM (LA MACHINE + Terrain à proximité / FIR )




Chargement des NOTAMS...
CONTACT PREFECTURE 58


Avertissement : Les données mises à disposition sont indicatives. Oxygène Drone ne pourra être tenu responsable de dégâts causés aux biens et aux personnes.